Time;durP1;ratioP1;P1;durP2;ratioP2;P2;SDS_P1;SDS_P2;PMS_P1;PMS_P2;Temp;Humidity;BMP_temperature;BMP_pressure;BME280_temperature;BME280_humidity;BME280_pressure;Samples;Min_cycle;Max_cycle;Signal;HPM_P1;HPM_P2
2022/10/05 00:02:19;;;;;;;1.53;1.10;;;;;;;9.88;100.00;96917.22;5080956;28;20269;-80
2022/10/05 00:04:48;;;;;;;1.50;1.07;;;;;;;9.90;100.00;96925.13;5084894;28;20291;-76
2022/10/05 00:07:17;;;;;;;3.27;1.30;;;;;;;9.95;100.00;96935.28;5082353;28;20198;-77
2022/10/05 00:09:45;;;;;;;1.80;1.13;;;;;;;9.92;100.00;96930.31;5086155;28;20219;-78
2022/10/05 00:12:15;;;;;;;1.53;1.27;;;;;;;9.92;100.00;96931.13;5082272;28;20205;-77
2022/10/05 00:14:43;;;;;;;1.20;1.10;;;;;;;9.67;100.00;96917.50;5088517;28;20237;-75
2022/10/05 00:17:16;;;;;;;1.10;0.97;;;;;;;9.64;100.00;96915.22;5084934;28;20205;-76
2022/10/05 00:19:45;;;;;;;2.40;1.00;;;;;;;9.66;100.00;96915.03;5087404;28;20208;-76
2022/10/05 00:22:16;;;;;;;0.80;0.80;;;;;;;9.66;100.00;96910.44;5090121;28;20204;-76
2022/10/05 00:24:43;;;;;;;1.73;1.00;;;;;;;9.77;100.00;96923.31;5089674;28;20189;-77
2022/10/05 00:27:16;;;;;;;3.03;1.20;;;;;;;9.74;100.00;96920.19;5087646;28;20225;-75
2022/10/05 00:29:44;;;;;;;0.80;0.80;;;;;;;9.71;100.00;96924.13;5088388;28;20291;-77
2022/10/05 00:32:12;;;;;;;2.17;1.07;;;;;;;9.60;100.00;96908.59;5084808;28;20179;-77
2022/10/05 00:34:40;;;;;;;0.90;0.90;;;;;;;9.57;100.00;96900.09;5087598;28;20190;-75
2022/10/05 00:37:07;;;;;;;3.20;1.00;;;;;;;9.55;100.00;96889.53;5086186;28;20273;-75
2022/10/05 00:39:37;;;;;;;0.87;0.87;;;;;;;9.74;100.00;96907.53;5084480;28;20218;-79
2022/10/05 00:42:18;;;;;;;1.90;0.70;;;;;;;9.84;100.00;96902.53;5079054;28;20218;-75
2022/10/05 00:44:50;;;;;;;0.80;0.80;;;;;;;9.95;100.00;96902.91;5083525;28;20258;-76
2022/10/05 00:47:33;;;;;;;1.97;0.90;;;;;;;10.06;100.00;96900.38;5087741;28;20201;-76
2022/10/05 00:50:17;;;;;;;0.80;0.80;;;;;;;10.22;100.00;96904.47;5082246;28;20228;-77
2022/10/05 00:52:53;;;;;;;2.43;1.10;;;;;;;10.21;100.00;96897.41;5100328;28;20182;-75
2022/10/05 00:55:31;;;;;;;2.50;0.90;;;;;;;10.29;100.00;96899.06;5084955;28;20223;-75
2022/10/05 00:58:12;;;;;;;0.90;0.90;;;;;;;10.21;100.00;96882.06;5072331;28;20201;-75
2022/10/05 01:00:47;;;;;;;2.20;0.90;;;;;;;10.17;100.00;96869.19;5081677;28;20209;-75
2022/10/05 01:03:23;;;;;;;3.50;0.90;;;;;;;10.19;100.00;96870.69;5081229;28;20216;-76
2022/10/05 01:06:01;;;;;;;2.57;1.00;;;;;;;10.33;100.00;96887.63;5074112;28;20260;-75
2022/10/05 01:08:40;;;;;;;2.77;1.20;;;;;;;10.30;100.00;96887.22;5088073;28;20327;-77
2022/10/05 01:11:13;;;;;;;2.50;1.63;;;;;;;10.30;100.00;96885.34;5090910;28;20198;-76
2022/10/05 01:13:50;;;;;;;5.40;1.30;;;;;;;10.27;100.00;96901.16;5088828;28;20267;-76
2022/10/05 01:16:25;;;;;;;2.70;1.20;;;;;;;10.21;100.00;96892.03;5088490;28;20209;-75
2022/10/05 01:19:10;;;;;;;1.73;1.10;;;;;;;10.22;100.00;96901.78;5086012;28;20236;-75
2022/10/05 01:21:46;;;;;;;3.53;1.00;;;;;;;10.18;100.00;96896.00;5091672;28;20189;-78
2022/10/05 01:24:40;;;;;;;3.63;1.30;;;;;;;10.04;100.00;96882.72;5093641;28;20204;-77
2022/10/05 01:27:18;;;;;;;3.23;1.40;;;;;;;9.96;100.00;96881.09;5089947;28;20186;-79
2022/10/05 01:29:57;;;;;;;2.80;1.30;;;;;;;9.91;100.00;96893.56;5106525;28;20235;-75
2022/10/05 01:32:30;;;;;;;1.80;1.30;;;;;;;9.90;100.00;96900.00;5088601;28;20235;-78
2022/10/05 01:35:10;;;;;;;3.90;1.43;;;;;;;9.85;100.00;96906.88;5091890;28;20205;-75
2022/10/05 01:37:48;;;;;;;6.20;1.50;;;;;;;9.62;100.00;96887.63;5094213;28;20209;-76
2022/10/05 01:40:25;;;;;;;4.07;1.27;;;;;;;9.62;100.00;96890.31;5083839;28;20213;-77
2022/10/05 01:43:03;;;;;;;3.13;1.67;;;;;;;9.53;100.00;96888.91;5087812;28;20202;-80
2022/10/05 01:45:43;;;;;;;6.47;1.40;;;;;;;9.49;100.00;96882.28;5091578;28;20201;-75
2022/10/05 01:48:22;;;;;;;1.43;1.20;;;;;;;9.41;100.00;96885.19;5103991;28;20205;-76
2022/10/05 01:51:06;;;;;;;3.43;1.40;;;;;;;9.40;100.00;96872.75;5091880;28;20196;-76
2022/10/05 01:53:47;;;;;;;1.30;1.20;;;;;;;9.34;100.00;96857.44;5088676;28;20217;-76
2022/10/05 01:56:21;;;;;;;3.30;1.70;;;;;;;9.41;100.00;96863.63;5091537;28;20220;-78
2022/10/05 01:58:55;;;;;;;4.53;1.30;;;;;;;9.31;100.00;96858.69;5091231;28;20257;-75
2022/10/05 02:01:32;;;;;;;1.57;1.17;;;;;;;9.34;100.00;96858.28;5091145;28;20305;-77
2022/10/05 02:04:06;;;;;;;1.10;1.00;;;;;;;9.31;100.00;96855.16;5086215;28;20243;-78
2022/10/05 02:06:38;;;;;;;1.30;1.13;;;;;;;9.39;100.00;96854.94;5091607;28;20193;-76
2022/10/05 02:09:13;;;;;;;1.77;1.27;;;;;;;9.35;100.00;96845.63;5090387;28;20205;-76
2022/10/05 02:11:43;;;;;;;1.83;1.30;;;;;;;9.33;100.00;96853.09;5104298;28;20202;-75
2022/10/05 02:14:12;;;;;;;1.37;1.03;;;;;;;9.30;100.00;96842.72;5091560;28;20213;-75
2022/10/05 02:16:44;;;;;;;3.20;1.00;;;;;;;9.22;100.00;96829.47;5089746;28;20243;-77
2022/10/05 02:19:18;;;;;;;3.90;0.90;;;;;;;9.26;100.00;96846.88;5091567;28;20182;-78
2022/10/05 02:21:48;;;;;;;1.37;1.10;;;;;;;9.25;100.00;96839.81;5092363;28;20209;-76
2022/10/05 02:24:21;;;;;;;1.03;0.93;;;;;;;9.10;100.00;96824.69;5090322;28;20248;-75
2022/10/05 02:26:51;;;;;;;1.30;1.03;;;;;;;9.06;100.00;96828.88;5091841;28;20228;-75
2022/10/05 02:29:23;;;;;;;1.37;0.90;;;;;;;8.98;100.00;96823.69;5075786;28;20210;-76
2022/10/05 02:31:57;;;;;;;2.43;1.47;;;;;;;8.88;100.00;96825.16;5084927;28;20189;-76
2022/10/05 02:34:27;;;;;;;2.30;1.30;;;;;;;8.92;100.00;96842.56;5088661;28;20273;-78
2022/10/05 02:37:12;;;;;;;6.30;1.20;;;;;;;8.84;100.00;96834.69;5083965;28;20177;-77
2022/10/05 02:39:51;;;;;;;1.77;1.47;;;;;;;8.91;100.00;96852.50;5077686;28;20209;-78
2022/10/05 02:42:27;;;;;;;3.60;1.50;;;;;;;8.87;100.00;96843.16;5088301;28;20220;-80
2022/10/05 02:45:03;;;;;;;3.10;1.20;;;;;;;8.94;100.00;96848.53;5076075;28;20209;-75
2022/10/05 02:47:42;;;;;;;1.53;1.40;;;;;;;8.93;100.00;96857.69;5089109;28;20260;-78
2022/10/05 02:50:18;;;;;;;2.10;1.60;;;;;;;8.90;100.00;96858.91;5088019;28;20253;-78
2022/10/05 02:52:58;;;;;;;4.17;2.00;;;;;;;8.89;100.00;96864.50;5090236;28;20239;-78
2022/10/05 02:55:34;;;;;;;5.97;1.77;;;;;;;8.85;100.00;96842.53;5095330;28;20206;-76
2022/10/05 02:58:08;;;;;;;4.53;1.70;;;;;;;8.82;100.00;96837.59;5085507;28;20394;-78
2022/10/05 03:00:42;;;;;;;2.27;1.50;;;;;;;8.82;100.00;96842.97;5087340;28;20298;-77
2022/10/05 03:03:20;;;;;;;2.13;1.23;;;;;;;8.83;100.00;96850.03;5087457;28;20206;-76
2022/10/05 03:05:54;;;;;;;1.57;1.47;;;;;;;8.77;100.00;96858.06;5086379;28;20197;-76
2022/10/05 03:08:30;;;;;;;1.63;1.30;;;;;;;8.70;100.00;96863.47;5086378;28;20209;-76
2022/10/05 03:11:07;;;;;;;2.37;1.40;;;;;;;8.68;100.00;96852.06;5083468;28;20205;-77
2022/10/05 03:13:45;;;;;;;2.90;1.67;;;;;;;8.71;100.00;96859.72;5091025;28;20264;-77
2022/10/05 03:16:25;;;;;;;2.80;1.70;;;;;;;8.66;100.00;96864.91;5075328;28;20253;-79
2022/10/05 03:19:03;;;;;;;4.33;1.67;;;;;;;8.66;100.00;96857.69;5082178;28;20244;-77
2022/10/05 03:21:47;;;;;;;3.90;1.70;;;;;;;8.73;100.00;96865.75;5081857;28;20225;-76
2022/10/05 03:24:30;;;;;;;2.30;1.80;;;;;;;8.65;100.00;96879.41;5085914;28;20201;-78
2022/10/05 03:27:05;;;;;;;3.57;2.27;;;;;;;8.62;100.00;96875.25;5082514;28;20221;-76
2022/10/05 03:29:40;;;;;;;3.20;1.50;;;;;;;8.64;100.00;96873.19;5087548;28;20220;-78
2022/10/05 03:32:18;;;;;;;1.90;1.47;;;;;;;8.81;100.00;96880.88;5086499;28;20193;-77
2022/10/05 03:34:53;;;;;;;7.33;1.83;;;;;;;8.80;100.00;96888.13;5084754;28;20198;-79
2022/10/05 03:37:27;;;;;;;2.50;1.70;;;;;;;8.70;100.00;96876.91;5086484;28;20213;-78
2022/10/05 03:40:02;;;;;;;5.07;1.63;;;;;;;8.76;100.00;96889.59;5086261;28;20208;-75
2022/10/05 03:42:45;;;;;;;3.53;1.57;;;;;;;8.66;100.00;96883.75;5082324;28;20189;-78
2022/10/05 03:45:24;;;;;;;3.17;1.60;;;;;;;8.60;100.00;96892.63;5079569;28;20198;-76
2022/10/05 03:47:56;;;;;;;4.57;1.80;;;;;;;8.49;100.00;96879.81;5083042;28;20204;-80
2022/10/05 03:50:39;;;;;;;4.87;1.30;;;;;;;8.49;100.00;96879.81;5084682;28;20213;-77
2022/10/05 03:53:15;;;;;;;6.87;1.60;;;;;;;8.42;100.00;96887.03;5080908;28;20207;-79
2022/10/05 03:55:48;;;;;;;3.97;1.63;;;;;;;8.48;100.00;96894.28;5075073;28;20177;-78
2022/10/05 03:58:20;;;;;;;2.00;1.40;;;;;;;8.42;100.00;96889.72;5084232;28;20232;-80
2022/10/05 04:00:53;;;;;;;3.47;1.90;;;;;;;8.35;100.00;96885.13;5085554;28;20248;-76
2022/10/05 04:03:25;;;;;;;3.33;1.37;;;;;;;8.36;100.00;96888.66;5081577;28;20232;-76
2022/10/05 04:05:59;;;;;;;3.63;1.60;;;;;;;8.37;100.00;96893.00;5080256;28;20206;-77
2022/10/05 04:08:35;;;;;;;3.33;1.67;;;;;;;8.30;100.00;96900.22;5086689;28;20181;-76
2022/10/05 04:11:09;;;;;;;1.70;1.40;;;;;;;8.28;100.00;96903.09;5080912;28;20221;-79
2022/10/05 04:13:43;;;;;;;5.67;1.70;;;;;;;8.22;100.00;96884.25;5086888;28;20223;-76
2022/10/05 04:16:15;;;;;;;10.60;2.90;;;;;;;8.34;100.00;96899.63;5100536;28;20253;-79
2022/10/05 04:18:48;;;;;;;2.50;2.20;;;;;;;8.23;100.00;96881.38;5085821;28;20182;-79
2022/10/05 04:21:23;;;;;;;3.33;1.30;;;;;;;8.32;100.00;96896.31;5080677;28;20209;-76
2022/10/05 04:23:58;;;;;;;2.67;2.23;;;;;;;8.32;100.00;96885.56;5086724;28;20227;-75
2022/10/05 04:26:35;;;;;;;2.13;1.40;;;;;;;8.35;100.00;96889.69;5088567;28;20227;-76
2022/10/05 04:29:12;;;;;;;3.20;2.00;;;;;;;8.32;100.00;96890.94;5088952;28;20205;-76
2022/10/05 04:31:52;;;;;;;3.10;1.37;;;;;;;8.37;100.00;96889.50;5072166;28;20220;-76
2022/10/05 04:34:39;;;;;;;6.03;1.70;;;;;;;8.28;100.00;96876.19;5082443;28;20214;-79
2022/10/05 04:37:12;;;;;;;1.97;1.30;;;;;;;8.40;100.00;96887.25;5087156;28;20211;-76
2022/10/05 04:39:51;;;;;;;1.53;1.40;;;;;;;8.44;100.00;96893.03;5084957;28;20228;-75
2022/10/05 04:42:28;;;;;;;2.40;2.00;;;;;;;8.47;100.00;96898.00;5083271;28;20292;-75
2022/10/05 04:45:14;;;;;;;5.93;2.13;;;;;;;8.46;100.00;96890.97;5084399;28;20331;-76
2022/10/05 04:48:11;;;;;;;1.63;1.53;;;;;;;8.41;100.00;96894.28;5086532;28;20217;-76
2022/10/05 04:50:52;;;;;;;1.60;1.30;;;;;;;8.38;100.00;96902.75;5082586;28;20255;-77
2022/10/05 04:53:28;;;;;;;4.20;1.30;;;;;;;8.27;100.00;96892.53;5084465;28;20209;-75
2022/10/05 04:56:01;;;;;;;2.90;1.30;;;;;;;8.33;100.00;96913.31;5089465;28;20224;-75
2022/10/05 04:58:47;;;;;;;2.33;1.30;;;;;;;8.30;100.00;96905.59;5089426;28;20200;-75
2022/10/05 05:01:41;;;;;;;1.10;1.00;;;;;;;8.25;100.00;96905.38;5086612;28;20252;-78
2022/10/05 05:04:32;;;;;;;1.97;1.07;;;;;;;8.25;100.00;96916.94;5095500;28;20220;-75
2022/10/05 05:07:14;;;;;;;5.67;1.23;;;;;;;8.24;100.00;96925.25;5083399;28;20213;-79
2022/10/05 05:10:13;;;;;;;1.10;1.00;;;;;;;8.41;100.00;96928.44;5082445;28;20202;-80
2022/10/05 05:12:57;;;;;;;3.17;1.30;;;;;;;8.27;100.00;96920.25;5067960;28;20217;-79
2022/10/05 05:15:38;;;;;;;2.10;1.20;;;;;;;8.18;100.00;96916.09;5068882;28;20233;-77
2022/10/05 05:18:44;;;;;;;2.63;2.10;;;;;;;8.30;100.00;96941.41;5085889;28;20218;-79
2022/10/05 05:21:22;;;;;;;1.20;1.10;;;;;;;8.22;100.00;96922.75;5081342;28;20221;-76
2022/10/05 05:23:57;;;;;;;2.73;1.50;;;;;;;8.26;100.00;96940.13;5085964;28;20215;-77
2022/10/05 05:26:34;;;;;;;2.67;1.20;;;;;;;8.08;100.00;96914.84;5092138;28;20204;-77
2022/10/05 05:29:14;;;;;;;2.03;1.40;;;;;;;8.19;100.00;96939.28;5089178;28;20182;-76
2022/10/05 05:31:48;;;;;;;2.37;1.30;;;;;;;8.16;100.00;96920.88;5088199;28;20193;-75
2022/10/05 05:34:33;;;;;;;1.83;1.33;;;;;;;8.40;100.00;96934.84;5073640;28;20240;-76
2022/10/05 05:37:08;;;;;;;3.07;1.20;;;;;;;8.37;100.00;96925.31;5086283;28;20192;-76
2022/10/05 05:39:47;;;;;;;2.90;1.37;;;;;;;8.44;100.00;96919.94;5085116;28;20244;-78
2022/10/05 05:42:31;;;;;;;2.43;1.60;;;;;;;8.52;100.00;96934.03;5090893;28;20248;-78
2022/10/05 05:45:10;;;;;;;3.73;1.60;;;;;;;8.57;100.00;96909.22;5084674;28;20210;-82
2022/10/05 05:47:42;;;;;;;6.50;1.70;;;;;;;8.63;100.00;96913.78;5089503;28;20212;-76
2022/10/05 05:50:26;;;;;;;1.70;1.40;;;;;;;8.70;100.00;96914.59;5092919;28;20193;-76
2022/10/05 05:52:58;;;;;;;5.30;1.70;;;;;;;8.75;100.00;96904.06;5086266;28;20231;-75
2022/10/05 05:55:31;;;;;;;3.87;1.87;;;;;;;8.71;100.00;96916.28;5089584;28;20210;-75
2022/10/05 05:58:09;;;;;;;2.23;1.60;;;;;;;8.73;100.00;96917.75;5080017;28;20228;-76
2022/10/05 06:00:42;;;;;;;2.80;1.80;;;;;;;8.71;100.00;96906.34;5093357;28;20269;-75
2022/10/05 06:03:15;;;;;;;3.13;1.83;;;;;;;8.71;100.00;96910.88;5082353;28;20187;-76
2022/10/05 06:05:48;;;;;;;4.97;1.60;;;;;;;8.78;100.00;96909.03;5087978;28;20182;-79
2022/10/05 06:08:22;;;;;;;2.00;1.27;;;;;;;8.80;100.00;96903.44;5091863;28;20178;-76
2022/10/05 06:10:57;;;;;;;1.57;1.40;;;;;;;8.87;100.00;96898.88;5087501;28;20197;-75
2022/10/05 06:13:30;;;;;;;2.33;1.40;;;;;;;8.92;100.00;96907.19;5084172;28;20219;-76
2022/10/05 06:16:04;;;;;;;1.47;1.20;;;;;;;8.99;100.00;96897.25;5079250;28;20241;-75
2022/10/05 06:18:33;;;;;;;3.07;1.50;;;;;;;8.99;100.00;96895.38;5089939;28;20221;-78
2022/10/05 06:21:04;;;;;;;2.77;1.40;;;;;;;9.05;100.00;96913.41;5090178;28;20201;-76
2022/10/05 06:23:43;;;;;;;1.73;1.37;;;;;;;8.96;100.00;96908.44;5089098;28;20185;-76
2022/10/05 06:26:19;;;;;;;1.37;1.00;;;;;;;8.91;100.00;96900.97;5091792;28;20177;-80
2022/10/05 06:28:51;;;;;;;1.53;1.20;;;;;;;8.97;100.00;96921.69;5064114;28;20209;-80
2022/10/05 06:31:37;;;;;;;1.63;1.27;;;;;;;9.00;100.00;96929.38;5075189;28;20308;-76
2022/10/05 06:34:20;;;;;;;2.47;1.33;;;;;;;8.92;100.00;96909.91;5083946;28;20239;-79
2022/10/05 06:36:53;;;;;;;3.03;1.40;;;;;;;8.95;100.00;96920.22;5086049;28;20224;-77
2022/10/05 06:39:54;;;;;;;4.50;1.43;;;;;;;8.99;100.00;96929.56;5088204;28;20205;-77
2022/10/05 06:42:31;;;;;;;2.07;1.10;;;;;;;8.93;100.00;96920.44;5085911;28;20221;-76
2022/10/05 06:45:34;;;;;;;0.90;0.90;;;;;;;8.94;100.00;96934.72;5062252;28;20201;-78
2022/10/05 06:48:41;;;;;;;1.37;1.03;;;;;;;8.88;100.00;96924.78;5078446;28;20198;-80
2022/10/05 06:51:42;;;;;;;1.10;1.00;;;;;;;8.96;100.00;96925.41;5068164;28;20207;-79
2022/10/05 06:54:40;;;;;;;2.53;1.10;;;;;;;8.99;100.00;96930.41;5075678;28;20273;-76
2022/10/05 06:57:15;;;;;;;1.13;1.00;;;;;;;8.99;100.00;96925.03;5084009;28;20228;-75
2022/10/05 06:59:53;;;;;;;1.63;1.30;;;;;;;8.94;100.00;96922.09;5086040;28;20234;-80
2022/10/05 07:02:28;;;;;;;3.70;1.30;;;;;;;8.95;100.00;96912.16;5088370;28;20506;-77
2022/10/05 07:05:20;;;;;;;1.10;1.03;;;;;;;8.87;100.00;96905.09;5085299;28;20196;-78
2022/10/05 07:07:52;;;;;;;1.20;1.10;;;;;;;8.95;100.00;96912.97;5082083;28;20226;-81
2022/10/05 07:10:32;;;;;;;3.23;1.20;;;;;;;8.94;100.00;96908.63;5085355;28;20206;-78
2022/10/05 07:13:28;;;;;;;2.10;1.30;;;;;;;8.98;100.00;96923.34;5086990;28;20239;-76
2022/10/05 07:16:02;;;;;;;6.00;2.10;;;;;;;8.86;100.00;96900.75;5085645;28;20259;-78
2022/10/05 07:18:49;;;;;;;1.17;1.03;;;;;;;8.88;100.00;96906.78;5087199;28;20226;-78
2022/10/05 07:21:28;;;;;;;1.60;1.00;;;;;;;8.97;100.00;96927.09;5074756;28;20240;-78
2022/10/05 07:24:05;;;;;;;1.37;0.90;;;;;;;8.94;100.00;96916.72;5089661;28;20209;-77
2022/10/05 07:26:38;;;;;;;3.03;1.00;;;;;;;8.84;100.00;96897.47;5089276;28;20206;-78
2022/10/05 07:29:25;;;;;;;3.67;1.80;;;;;;;8.83;100.00;96893.09;5085368;28;20215;-78
2022/10/05 07:32:06;;;;;;;2.40;1.13;;;;;;;8.86;100.00;96903.44;5078489;28;20221;-77
2022/10/05 07:34:47;;;;;;;1.17;1.07;;;;;;;8.94;100.00;96905.94;5082298;28;20198;-79
2022/10/05 07:40:13;;;;;;;4.17;1.87;;;;;;;8.98;100.00;96893.72;5087335;28;20208;-79
2022/10/05 07:42:56;;;;;;;3.70;1.90;;;;;;;8.92;100.00;96894.56;5089562;28;20233;-76
2022/10/05 07:45:29;;;;;;;3.33;2.50;;;;;;;8.92;100.00;96897.25;5089299;28;20195;-77
2022/10/05 07:48:01;;;;;;;3.53;1.87;;;;;;;8.92;100.00;96889.19;5088958;28;20250;-77
2022/10/05 07:50:35;;;;;;;3.40;1.50;;;;;;;9.10;100.00;96902.03;5089933;28;20383;-78
2022/10/05 07:53:11;;;;;;;2.23;1.30;;;;;;;8.99;100.00;96881.91;5084123;28;20188;-79
2022/10/05 07:55:44;;;;;;;4.33;1.27;;;;;;;9.04;100.00;96883.97;5084649;28;20193;-76
2022/10/05 07:58:20;;;;;;;1.83;1.40;;;;;;;9.17;100.00;96899.31;5086932;28;20237;-77
2022/10/05 08:01:08;;;;;;;1.70;1.10;;;;;;;9.19;100.00;96902.63;5078381;28;20201;-78
2022/10/05 08:03:48;;;;;;;3.67;1.77;;;;;;;9.18;100.00;96901.00;5071660;28;20230;-80
2022/10/05 08:06:32;;;;;;;1.17;1.00;;;;;;;9.25;100.00;96891.03;5070955;28;20238;-78
2022/10/05 08:09:07;;;;;;;2.77;1.13;;;;;;;9.26;100.00;96892.69;5082581;28;20202;-79
2022/10/05 08:11:42;;;;;;;4.63;1.47;;;;;;;9.28;100.00;96886.03;5085058;28;20204;-81
2022/10/05 08:14:17;;;;;;;1.77;1.10;;;;;;;9.34;100.00;96889.78;5080904;28;20723;-78
2022/10/05 08:16:48;;;;;;;1.50;1.13;;;;;;;9.57;100.00;96894.72;5078926;28;20248;-83
2022/10/05 08:19:22;;;;;;;2.23;1.00;;;;;;;9.58;100.00;96883.72;5092881;28;20198;-79
2022/10/05 08:21:54;;;;;;;1.80;0.90;;;;;;;9.60;100.00;96884.34;5080908;28;20247;-77
2022/10/05 08:24:41;;;;;;;0.93;0.90;;;;;;;9.84;100.00;96886.34;5086774;28;20209;-78
2022/10/05 08:27:15;;;;;;;4.60;0.97;;;;;;;10.12;100.00;96901.41;5086298;28;20197;-77
2022/10/05 08:29:52;;;;;;;5.80;1.13;;;;;;;10.25;100.00;96893.28;5086538;28;20192;-78
2022/10/05 08:32:24;;;;;;;1.77;1.10;;;;;;;10.41;100.00;96881.13;5090000;28;20214;-78
2022/10/05 08:34:58;;;;;;;1.97;1.07;;;;;;;10.67;100.00;96907.16;5090850;28;20209;-77
2022/10/05 08:37:29;;;;;;;2.60;1.17;;;;;;;10.92;100.00;96905.34;5084659;28;20209;-76
2022/10/05 08:40:23;;;;;;;7.10;1.40;;;;;;;11.11;100.00;96896.25;5079304;28;20232;-77
2022/10/05 08:43:05;;;;;;;3.70;1.20;;;;;;;11.33;100.00;96891.28;5068172;28;20211;-76
2022/10/05 08:45:55;;;;;;;3.47;1.60;;;;;;;11.63;100.00;96913.06;5084344;28;20244;-75
2022/10/05 08:48:51;;;;;;;3.50;1.50;;;;;;;11.72;100.00;96900.91;5078940;28;20210;-77
2022/10/05 08:51:42;;;;;;;1.90;1.20;;;;;;;12.04;100.00;96920.56;5087077;28;20182;-78
2022/10/05 08:54:46;;;;;;;3.40;1.50;;;;;;;12.28;100.00;96910.69;5075593;28;20278;-76
2022/10/05 08:57:41;;;;;;;2.83;1.40;;;;;;;12.56;100.00;96912.84;5085520;28;20205;-76
2022/10/05 09:00:15;;;;;;;3.43;1.70;;;;;;;12.75;100.00;96907.16;5103516;28;20223;-77
2022/10/05 09:03:07;;;;;;;4.00;2.00;;;;;;;12.88;100.00;96906.94;5090538;28;20247;-81
2022/10/05 09:05:57;;;;;;;4.93;1.90;;;;;;;13.14;100.00;96916.59;5027099;28;20510;-77
2022/10/05 09:08:48;;;;;;;4.13;1.50;;;;;;;13.23;100.00;96901.66;5086817;28;20196;-77
2022/10/05 09:11:24;;;;;;;9.33;2.10;;;;;;;13.40;100.00;96907.22;5088903;28;20192;-76
2022/10/05 09:14:18;;;;;;;2.63;1.70;;;;;;;13.66;100.00;96930.34;5087524;28;20232;-77
2022/10/05 09:17:20;;;;;;;4.50;1.90;;;;;;;13.86;100.00;96919.97;5085844;28;20249;-81
2022/10/05 09:19:53;;;;;;;3.00;1.80;;;;;;;14.01;98.71;96912.16;5080221;28;20215;-76
2022/10/05 09:22:56;;;;;;;4.03;2.07;;;;;;;14.12;96.84;96907.75;5088547;28;20249;-76
2022/10/05 09:25:30;;;;;;;2.50;1.60;;;;;;;14.38;95.02;96918.13;5072720;28;20192;-77
2022/10/05 09:28:17;;;;;;;1.67;1.30;;;;;;;14.46;87.10;96918.84;5089939;28;20204;-77
2022/10/05 09:31:03;;;;;;;5.10;1.80;;;;;;;14.62;84.97;96913.47;5088712;28;20173;-76
2022/10/05 09:33:45;;;;;;;2.03;1.60;;;;;;;14.93;84.82;96920.31;5085146;28;20185;-76
2022/10/05 09:36:42;;;;;;;6.70;1.67;;;;;;;15.11;85.60;96933.69;5087596;28;20182;-76
2022/10/05 09:39:48;;;;;;;1.83;1.30;;;;;;;15.25;85.04;96922.50;5054382;28;20201;-76
2022/10/05 09:42:41;;;;;;;2.23;1.50;;;;;;;15.52;85.50;96935.22;5061127;28;20223;-75
2022/10/05 09:45:30;;;;;;;1.80;1.23;;;;;;;15.63;84.53;96921.81;5091588;28;20181;-76
2022/10/05 09:48:39;;;;;;;4.30;1.63;;;;;;;15.80;83.30;96918.00;5091499;28;20268;-76
2022/10/05 09:51:44;;;;;;;4.50;2.33;;;;;;;16.10;82.89;96930.41;4996957;28;20266;-75
2022/10/05 09:54:39;;;;;;;3.40;1.77;;;;;;;16.16;81.69;96918.50;4989240;28;20268;-76
2022/10/05 09:57:50;;;;;;;1.77;1.23;;;;;;;16.32;76.85;96914.91;5073039;28;20189;-76
2022/10/05 10:00:30;;;;;;;3.67;1.60;;;;;;;16.56;74.99;96921.75;5041912;28;20257;-75
2022/10/05 10:03:25;;;;;;;4.17;1.47;;;;;;;16.68;72.93;96910.72;5087440;28;20208;-75
2022/10/05 10:06:24;;;;;;;2.03;1.37;;;;;;;16.97;72.55;96933.16;5084785;28;20184;-76
2022/10/05 10:09:21;;;;;;;2.90;1.47;;;;;;;17.24;72.03;96919.53;5079946;28;20225;-76
2022/10/05 10:12:14;;;;;;;3.07;1.57;;;;;;;17.43;69.93;96929.00;5080065;28;20181;-76
2022/10/05 10:15:22;;;;;;;1.90;1.50;;;;;;;17.69;71.64;96927.31;5099533;28;20233;-76
2022/10/05 10:18:06;;;;;;;2.50;1.40;;;;;;;17.84;71.48;96927.44;5093019;28;20257;-78
2022/10/05 10:20:56;;;;;;;2.53;1.30;;;;;;;17.87;71.34;96931.53;5092619;28;20193;-75
2022/10/05 10:23:53;;;;;;;6.93;1.90;;;;;;;18.01;69.68;96928.09;5087189;28;20350;-75
2022/10/05 10:26:53;;;;;;;2.10;1.20;;;;;;;18.22;68.08;96926.28;5083622;28;20197;-76
2022/10/05 10:29:38;;;;;;;4.23;1.37;;;;;;;18.46;68.98;96929.44;5079844;28;20197;-75
2022/10/05 10:32:39;;;;;;;3.20;1.50;;;;;;;18.78;63.70;96932.06;5079960;28;20183;-75
2022/10/05 10:35:26;;;;;;;5.80;1.83;;;;;;;19.05;63.72;96926.41;5060077;28;20213;-76
2022/10/05 10:38:36;;;;;;;3.33;1.40;;;;;;;19.22;59.28;96924.28;5089309;28;20201;-76
2022/10/05 10:41:31;;;;;;;2.85;1.30;;;;;;;19.32;59.92;96924.25;5018388;28;20205;-75
2022/10/05 10:44:25;;;;;;;3.92;1.48;;;;;;;19.47;58.54;96926.22;5083828;28;20296;-78
2022/10/05 10:47:07;;;;;;;2.45;1.60;;;;;;;19.79;58.98;96920.50;5086017;28;20194;-77
2022/10/05 10:49:53;;;;;;;1.40;1.20;;;;;;;19.98;56.08;96925.13;5084882;28;20229;-82
2022/10/05 10:52:34;;;;;;;3.10;1.25;;;;;;;20.28;53.61;96921.50;5080270;28;20209;-80
2022/10/05 10:55:30;;;;;;;1.40;1.25;;;;;;;20.47;50.79;96929.16;5075778;28;20255;-83
2022/10/05 10:58:34;;;;;;;3.22;1.33;;;;;;;20.59;51.45;96919.50;5076959;28;20209;-79
2022/10/05 11:01:23;;;;;;;1.50;1.40;;;;;;;20.68;55.02;96920.56;5061580;28;20232;-79
2022/10/05 11:04:05;;;;;;;1.55;1.27;;;;;;;20.83;56.24;96914.22;5070231;28;20221;-81
2022/10/05 11:07:04;;;;;;;3.95;1.27;;;;;;;20.55;59.04;96909.38;5074900;28;20211;-82
2022/10/05 11:10:13;;;;;;;1.67;1.40;;;;;;;20.45;57.52;96910.25;5073325;28;20217;-81
2022/10/05 11:13:24;;;;;;;4.88;1.67;;;;;;;20.74;56.98;96902.19;5071027;28;20197;-83
2022/10/05 11:16:36;;;;;;;3.47;1.40;;;;;;;21.06;56.49;96899.81;5069658;28;20233;-77
2022/10/05 11:19:40;;;;;;;3.85;1.40;;;;;;;21.02;56.94;96895.16;5026112;28;20205;-79
2022/10/05 11:22:20;;;;;;;2.25;1.45;;;;;;;21.24;56.50;96900.28;5060299;28;20233;-79
2022/10/05 11:25:04;;;;;;;2.38;1.80;;;;;;;21.36;55.51;96909.78;5070155;28;20213;-82
2022/10/05 11:28:03;;;;;;;4.00;1.50;;;;;;;21.09;55.00;96901.19;5067169;28;20217;-82
2022/10/05 11:30:55;;;;;;;5.30;1.30;;;;;;;21.05;55.50;96887.19;5068489;28;20221;-80
2022/10/05 11:34:06;;;;;;;3.83;1.30;;;;;;;21.45;54.16;96893.53;5077892;28;20242;-81
2022/10/05 11:37:02;;;;;;;6.82;1.20;;;;;;;21.60;50.74;96878.88;5060734;28;20228;-82
2022/10/05 11:39:37;;;;;;;2.53;1.50;;;;;;;21.62;53.33;96873.88;5073020;28;20237;-81
2022/10/05 11:42:29;;;;;;;2.38;1.27;;;;;;;21.98;53.48;96877.97;5078138;28;20212;-82
2022/10/05 11:45:21;;;;;;;2.38;1.20;;;;;;;22.10;52.89;96863.84;5067054;28;20229;-81
2022/10/05 11:48:16;;;;;;;1.25;1.15;;;;;;;22.21;51.59;96868.94;5074901;28;20231;-83
2022/10/05 11:50:57;;;;;;;3.00;1.25;;;;;;;22.50;51.91;96865.31;5078457;28;20214;-80
2022/10/05 11:53:29;;;;;;;3.25;1.20;;;;;;;22.44;51.49;96858.25;5074658;28;20208;-83
2022/10/05 11:56:06;;;;;;;2.03;1.50;;;;;;;22.62;49.66;96854.72;5075125;28;20260;-83
2022/10/05 11:58:39;;;;;;;1.88;1.58;;;;;;;22.73;50.00;96860.88;5071528;28;20209;-81
2022/10/05 12:01:24;;;;;;;1.55;1.40;;;;;;;22.82;49.43;96856.38;5073434;28;20229;-83
2022/10/05 12:03:59;;;;;;;3.78;1.40;;;;;;;22.88;49.34;96852.47;5071517;28;20237;-79
2022/10/05 12:06:57;;;;;;;2.17;1.10;;;;;;;23.09;48.03;96841.97;5064648;28;20201;-82
2022/10/05 12:12:37;;;;;;;2.65;1.35;;;;;;;23.08;48.18;96835.63;5051766;28;20205;-78
2022/10/05 12:15:17;;;;;;;2.10;1.50;;;;;;;22.82;48.08;96829.69;5063329;28;20237;-82
2022/10/05 12:17:52;;;;;;;1.20;1.10;;;;;;;22.65;47.98;96832.91;5068027;28;20208;-80
2022/10/05 12:20:24;;;;;;;1.40;1.15;;;;;;;22.63;48.83;96829.63;5071064;28;20327;-81
2022/10/05 12:22:58;;;;;;;1.48;1.30;;;;;;;22.72;48.72;96820.69;5062764;28;20230;-81
2022/10/05 12:25:30;;;;;;;2.95;1.17;;;;;;;22.68;49.82;96819.66;5070404;28;20207;-78
2022/10/05 12:28:03;;;;;;;2.72;1.30;;;;;;;23.00;49.29;96814.28;5070946;28;20269;-80
2022/10/05 12:30:50;;;;;;;5.90;1.35;;;;;;;23.21;48.96;96812.88;5071603;28;20269;-80
2022/10/05 12:33:23;;;;;;;2.22;1.20;;;;;;;23.34;50.40;96803.00;5071378;28;20205;-80
2022/10/05 12:35:56;;;;;;;2.38;1.40;;;;;;;23.04;49.86;96812.56;5074627;28;20243;-80
2022/10/05 12:38:28;;;;;;;2.75;1.40;;;;;;;22.97;48.33;96801.09;5070304;28;20232;-79
2022/10/05 12:41:06;;;;;;;6.22;1.67;;;;;;;23.01;48.67;96799.38;5070003;28;20252;-83
2022/10/05 12:43:44;;;;;;;2.75;1.60;;;;;;;23.10;47.74;96796.78;5058370;28;20229;-78